Time;durP1;ratioP1;P1;durP2;ratioP2;P2;SDS_P1;SDS_P2;PMS_P1;PMS_P2;Temp;Humidity;BMP_temperature;BMP_pressure;BME280_temperature;BME280_humidity;BME280_pressure;Samples;Min_cycle;Max_cycle;Signal;HPM_P1;HPM_P2
2022/04/20 00:00:35;;;;;;;11.87;5.10;;;12.40;61.10;;;;;;5035134;28;20389;-76
2022/04/20 00:03:02;;;;;;;9.33;5.17;;;12.30;61.20;;;;;;5051921;28;20028;-77
2022/04/20 00:05:32;;;;;;;8.13;3.93;;;12.30;61.00;;;;;;5039088;28;20497;-76
2022/04/20 00:07:57;;;;;;;10.05;4.88;;;12.30;61.30;;;;;;5056885;28;20090;-76
2022/04/20 00:10:23;;;;;;;9.80;5.27;;;12.20;61.10;;;;;;5055530;28;20489;-76
2022/04/20 00:12:49;;;;;;;13.50;5.20;;;12.20;61.30;;;;;;5038952;28;20116;-77
2022/04/20 00:15:14;;;;;;;9.23;4.03;;;12.30;61.70;;;;;;5055655;28;20028;-76
2022/04/20 00:17:40;;;;;;;8.37;4.00;;;12.10;61.70;;;;;;5055129;28;20041;-76
2022/04/20 00:20:06;;;;;;;8.83;3.97;;;12.00;61.50;;;;;;5055273;28;20036;-76
2022/04/20 00:22:32;;;;;;;7.30;3.83;;;12.00;61.90;;;;;;5022179;28;20029;-77
2022/04/20 00:24:57;;;;;;;7.07;3.37;;;12.00;61.50;;;;;;5038658;28;20033;-76
2022/04/20 00:27:23;;;;;;;8.07;2.97;;;12.00;61.10;;;;;;5056611;28;20465;-77
2022/04/20 00:29:49;;;;;;;8.20;3.40;;;11.90;61.00;;;;;;5038630;28;20465;-76
2022/04/20 00:32:14;;;;;;;7.90;3.43;;;11.90;60.90;;;;;;5022021;28;20071;-77
2022/04/20 00:34:40;;;;;;;6.70;2.97;;;11.80;60.90;;;;;;5038578;28;20079;-77
2022/04/20 00:37:05;;;;;;;8.87;3.17;;;11.80;61.10;;;;;;5038457;28;20033;-77
2022/04/20 00:39:32;;;;;;;8.13;2.93;;;11.80;61.10;;;;;;5054994;28;20029;-77
2022/04/20 00:41:58;;;;;;;7.00;2.70;;;11.80;61.20;;;;;;5038428;28;20086;-77
2022/04/20 00:44:25;;;;;;;7.47;3.10;;;11.70;61.20;;;;;;5021921;28;20033;-76
2022/04/20 00:46:52;;;;;;;10.05;3.03;;;11.80;61.10;;;;;;5054797;28;20461;-76
2022/04/20 00:49:18;;;;;;;5.97;2.70;;;11.70;61.10;;;;;;5037924;28;20266;-76
2022/04/20 00:51:51;;;;;;;5.17;2.43;;;11.70;60.90;;;;;;5038061;28;20071;-75
2022/04/20 00:54:16;;;;;;;7.43;2.97;;;11.70;60.90;;;;;;5038262;28;20029;-76
2022/04/20 00:56:42;;;;;;;7.33;2.93;;;11.70;60.80;;;;;;5055797;28;20104;-76
2022/04/20 00:59:08;;;;;;;8.67;2.90;;;11.60;60.70;;;;;;5021830;28;20025;-76
2022/04/20 01:01:34;;;;;;;4.83;2.47;;;11.60;60.70;;;;;;5038086;28;20029;-76
2022/04/20 01:04:00;;;;;;;5.90;2.47;;;11.60;60.70;;;;;;5054376;28;20029;-76
2022/04/20 01:06:25;;;;;;;6.33;2.90;;;11.70;60.90;;;;;;5037742;28;20339;-76
2022/04/20 01:08:51;;;;;;;8.50;3.00;;;11.50;60.90;;;;;;5037857;28;20033;-77
2022/04/20 01:11:17;;;;;;;5.53;2.70;;;11.50;60.80;;;;;;5021256;28;20036;-77
2022/04/20 01:13:42;;;;;;;7.60;2.80;;;11.50;61.00;;;;;;5037882;28;20036;-77
2022/04/20 01:16:08;;;;;;;7.83;3.33;;;11.50;61.00;;;;;;5036521;28;20123;-77
2022/04/20 01:18:42;;;;;;;6.97;3.10;;;11.50;61.00;;;;;;5054290;28;20053;-76
2022/04/20 01:21:07;;;;;;;7.88;2.53;;;11.40;60.90;;;;;;5055733;28;20041;-76
2022/04/20 01:23:33;;;;;;;4.77;2.40;;;11.40;61.20;;;;;;5020925;28;20446;-77
2022/04/20 01:25:59;;;;;;;5.13;2.50;;;11.40;61.50;;;;;;5021308;28;20029;-76
2022/04/20 01:28:25;;;;;;;5.07;2.43;;;11.40;60.80;;;;;;5020670;28;20033;-77
2022/04/20 01:30:51;;;;;;;6.33;2.60;;;11.30;60.90;;;;;;5053863;28;20064;-77
2022/04/20 01:33:16;;;;;;;5.07;2.40;;;11.30;60.80;;;;;;5053929;28;20061;-75
2022/04/20 01:35:42;;;;;;;6.50;3.00;;;11.20;60.70;;;;;;5037324;28;20025;-77
2022/04/20 01:38:07;;;;;;;5.70;2.70;;;11.20;61.00;;;;;;5054079;28;20543;-76
2022/04/20 01:40:34;;;;;;;6.37;2.13;;;11.20;61.00;;;;;;5020870;28;20078;-76
2022/04/20 01:43:00;;;;;;;6.23;2.03;;;11.20;61.20;;;;;;5053825;28;20492;-77
2022/04/20 01:45:25;;;;;;;6.60;2.60;;;11.20;60.90;;;;;;5020763;28;20031;-76
2022/04/20 01:47:51;;;;;;;5.00;2.43;;;11.10;61.10;;;;;;5053687;28;20033;-77
2022/04/20 01:50:16;;;;;;;4.23;1.93;;;11.10;61.00;;;;;;5037137;28;20029;-76
2022/04/20 01:52:42;;;;;;;6.03;2.13;;;11.10;60.80;;;;;;5037355;28;20021;-77
2022/04/20 01:55:08;;;;;;;8.13;2.33;;;11.10;60.80;;;;;;5037090;28;20098;-77
2022/04/20 01:57:34;;;;;;;8.70;2.60;;;11.00;60.90;;;;;;5037114;28;20021;-77
2022/04/20 02:00:00;;;;;;;6.87;2.10;;;11.10;60.60;;;;;;5020357;28;20028;-76
2022/04/20 02:02:34;;;;;;;3.87;1.70;;;11.00;60.70;;;;;;5020449;28;20091;-75
2022/04/20 02:05:02;;;;;;;4.50;1.70;;;11.00;60.60;;;;;;5037984;28;20124;-76
2022/04/20 02:07:28;;;;;;;5.90;2.13;;;11.00;60.50;;;;;;5037026;28;20044;-77
2022/04/20 02:09:54;;;;;;;4.87;2.20;;;11.00;60.50;;;;;;5020384;28;20029;-76
2022/04/20 02:12:19;;;;;;;5.53;2.53;;;11.00;60.60;;;;;;5036639;28;20025;-76
2022/04/20 02:14:47;;;;;;;5.70;2.33;;;11.00;60.50;;;;;;5036633;28;20021;-76
2022/04/20 02:17:12;;;;;;;4.37;1.50;;;10.90;60.70;;;;;;5019947;28;20049;-76
2022/04/20 02:19:38;;;;;;;5.33;2.33;;;11.00;60.60;;;;;;5053227;28;20113;-77
2022/04/20 02:22:05;;;;;;;7.57;2.37;;;10.90;60.40;;;;;;5052830;28;20440;-75
2022/04/20 02:24:31;;;;;;;4.73;2.30;;;10.90;60.30;;;;;;5053058;28;20450;-77
2022/04/20 02:26:56;;;;;;;6.20;2.53;;;10.90;60.30;;;;;;5053786;28;20469;-77
2022/04/20 02:29:22;;;;;;;4.77;2.17;;;10.80;60.20;;;;;;5053437;28;20025;-75
2022/04/20 02:31:48;;;;;;;5.53;2.20;;;10.80;60.10;;;;;;5052929;28;20446;-77
2022/04/20 02:34:14;;;;;;;4.73;2.10;;;10.90;60.10;;;;;;5052631;28;20029;-76
2022/04/20 02:36:39;;;;;;;5.47;2.17;;;10.80;60.10;;;;;;5053209;28;20087;-76
2022/04/20 02:39:05;;;;;;;4.43;2.20;;;10.80;60.10;;;;;;5036140;28;20021;-76
2022/04/20 02:41:39;;;;;;;5.93;1.67;;;10.80;60.10;;;;;;5036191;28;20466;-76
2022/04/20 02:44:05;;;;;;;5.10;2.03;;;10.70;60.10;;;;;;5053861;28;20099;-76
2022/04/20 02:46:31;;;;;;;5.10;1.80;;;10.70;60.20;;;;;;5053088;28;20442;-76
2022/04/20 02:48:56;;;;;;;4.70;1.80;;;10.70;60.20;;;;;;5052523;28;20021;-75
2022/04/20 02:51:22;;;;;;;4.20;1.67;;;10.70;60.20;;;;;;5052463;28;20029;-76
2022/04/20 02:53:48;;;;;;;5.07;1.87;;;10.70;60.30;;;;;;5035908;28;20396;-77
2022/04/20 02:56:13;;;;;;;4.83;2.23;;;10.70;60.30;;;;;;5052402;28;20053;-76
2022/04/20 02:58:39;;;;;;;5.23;2.07;;;10.70;60.30;;;;;;5052664;28;20029;-76
2022/04/20 03:01:06;;;;;;;5.93;2.13;;;10.60;60.30;;;;;;5035810;28;20102;-75
2022/04/20 03:03:32;;;;;;;4.60;2.10;;;10.60;60.30;;;;;;5068970;28;20021;-76
2022/04/20 03:05:57;;;;;;;5.70;2.10;;;10.60;60.30;;;;;;5052301;28;20136;-76
2022/04/20 03:08:24;;;;;;;3.90;1.80;;;10.60;60.40;;;;;;5052292;28;20478;-77
2022/04/20 03:10:51;;;;;;;3.93;1.80;;;10.50;60.30;;;;;;5052207;28;20112;-82
2022/04/20 03:13:17;;;;;;;5.30;2.27;;;10.60;60.50;;;;;;5052389;28;20032;-82
2022/04/20 03:15:43;;;;;;;5.27;2.23;;;10.50;60.40;;;;;;5069143;28;20037;-75
2022/04/20 03:18:09;;;;;;;4.30;1.80;;;10.40;60.60;;;;;;5035411;28;20049;-76
2022/04/20 03:20:34;;;;;;;6.37;2.03;;;10.40;60.50;;;;;;5052052;28;20025;-76
2022/04/20 03:23:00;;;;;;;4.47;1.80;;;10.40;60.60;;;;;;5052430;28;20592;-75
2022/04/20 03:25:26;;;;;;;4.63;1.93;;;10.40;60.50;;;;;;5053317;28;20036;-76
2022/04/20 03:27:51;;;;;;;7.03;1.80;;;10.40;60.60;;;;;;5052089;28;20037;-76
2022/04/20 03:30:17;;;;;;;5.23;2.10;;;10.40;60.60;;;;;;5051945;28;20025;-75
2022/04/20 03:32:43;;;;;;;5.07;1.90;;;10.40;60.60;;;;;;5051846;28;20025;-76
2022/04/20 03:35:09;;;;;;;5.03;1.97;;;10.30;60.70;;;;;;5035314;28;20021;-75
2022/04/20 03:37:36;;;;;;;4.37;1.67;;;10.30;60.80;;;;;;5051325;28;20386;-76
2022/04/20 03:40:03;;;;;;;5.27;1.83;;;10.30;61.00;;;;;;5051618;28;20024;-76
2022/04/20 03:42:29;;;;;;;5.57;2.00;;;10.20;60.90;;;;;;5035365;28;20037;-75
2022/04/20 03:44:54;;;;;;;4.77;1.87;;;10.30;61.00;;;;;;5035273;28;20123;-76
2022/04/20 03:47:20;;;;;;;5.80;2.27;;;10.20;60.80;;;;;;5052072;28;20460;-75
2022/04/20 03:49:46;;;;;;;4.47;1.73;;;10.20;61.50;;;;;;5035155;28;20027;-76
2022/04/20 03:52:11;;;;;;;3.90;1.73;;;10.20;60.90;;;;;;5068492;28;20037;-76
2022/04/20 03:54:37;;;;;;;6.23;1.97;;;10.30;61.30;;;;;;5035127;28;20036;-75
2022/04/20 03:57:03;;;;;;;5.00;1.80;;;10.10;61.20;;;;;;5052136;28;20025;-76
2022/04/20 03:59:32;;;;;;;5.60;1.70;;;10.10;61.10;;;;;;5035239;28;20029;-76
2022/04/20 04:01:59;;;;;;;5.60;2.07;;;10.10;61.20;;;;;;5053276;28;20044;-75
2022/04/20 04:04:24;;;;;;;4.33;1.70;;;10.10;61.40;;;;;;5035067;28;20388;-74
2022/04/20 04:06:50;;;;;;;4.17;1.63;;;10.00;61.20;;;;;;5051754;28;20029;-75
2022/04/20 04:09:16;;;;;;;7.43;1.70;;;10.00;61.30;;;;;;5051735;28;20112;-75
2022/04/20 04:11:42;;;;;;;4.70;1.80;;;10.00;61.20;;;;;;5051484;28;20595;-76
2022/04/20 04:14:07;;;;;;;8.03;2.23;;;10.10;61.60;;;;;;5034973;28;20037;-75
2022/04/20 04:16:36;;;;;;;5.73;1.80;;;9.90;61.30;;;;;;5035207;28;20032;-75
2022/04/20 04:19:03;;;;;;;4.00;2.03;;;9.90;61.30;;;;;;5035352;28;20052;-76
2022/04/20 04:21:29;;;;;;;4.80;1.80;;;10.00;61.40;;;;;;5034913;28;20029;-75
2022/04/20 04:23:55;;;;;;;5.47;1.87;;;9.90;61.40;;;;;;5035007;28;20103;-75
2022/04/20 04:26:20;;;;;;;4.67;1.43;;;9.90;62.10;;;;;;5034987;28;20477;-75
2022/04/20 04:28:46;;;;;;;4.00;1.30;;;9.90;61.40;;;;;;5035047;28;20527;-75
2022/04/20 04:31:11;;;;;;;5.77;1.90;;;9.90;61.80;;;;;;5034782;28;20040;-75
2022/04/20 04:33:37;;;;;;;5.63;1.63;;;9.90;62.00;;;;;;5018387;28;20040;-75
2022/04/20 04:36:03;;;;;;;5.10;1.53;;;9.80;61.70;;;;;;5051326;28;20489;-74
2022/04/20 04:38:28;;;;;;;5.13;1.40;;;9.80;61.60;;;;;;5052716;28;20033;-75
2022/04/20 04:40:54;;;;;;;4.23;1.90;;;9.80;62.10;;;;;;5051029;28;20466;-77
2022/04/20 04:43:19;;;;;;;4.37;1.80;;;9.70;61.50;;;;;;5052505;28;20036;-75
2022/04/20 04:48:41;;;;;;;4.28;1.50;;;9.80;61.80;;;;;;5037662;28;20044;-75
2022/04/20 04:51:10;;;;;;;3.27;1.67;;;9.70;61.80;;;;;;5039475;28;20544;-76
2022/04/20 04:53:37;;;;;;;3.10;1.20;;;9.70;61.60;;;;;;5054509;28;20393;-74
2022/04/20 04:56:03;;;;;;;6.30;2.13;;;9.70;61.70;;;;;;5055874;28;20102;-76
2022/04/20 04:58:28;;;;;;;3.67;1.37;;;9.70;61.70;;;;;;5055059;28;20079;-75
2022/04/20 05:00:54;;;;;;;5.20;1.93;;;9.70;62.10;;;;;;5021520;28;20108;-76
2022/04/20 05:03:20;;;;;;;3.43;1.50;;;9.70;61.80;;;;;;5055957;28;20103;-76
2022/04/20 05:05:47;;;;;;;4.87;1.70;;;9.70;61.80;;;;;;5055717;28;20029;-76
2022/04/20 05:08:12;;;;;;;3.80;1.40;;;9.80;61.80;;;;;;5054527;28;20020;-76
2022/04/20 05:10:38;;;;;;;3.73;1.67;;;9.80;61.90;;;;;;5021309;28;20040;-74
2022/04/20 05:13:05;;;;;;;4.73;1.50;;;9.80;61.90;;;;;;5037948;28;20420;-76
2022/04/20 05:15:31;;;;;;;5.50;1.83;;;9.80;61.80;;;;;;5044212;28;20029;-75
2022/04/20 05:17:56;;;;;;;5.80;1.70;;;9.80;62.50;;;;;;5034373;28;20049;-76
2022/04/20 05:20:22;;;;;;;5.50;1.63;;;9.80;61.80;;;;;;5017953;28;20095;-75
2022/04/20 05:22:49;;;;;;;6.37;1.60;;;9.70;61.80;;;;;;5034458;28;20036;-75
2022/04/20 05:25:15;;;;;;;3.13;1.50;;;9.80;61.80;;;;;;5017711;28;20014;-76
2022/04/20 05:27:41;;;;;;;3.60;1.43;;;9.80;62.60;;;;;;5017847;28;20389;-76
2022/04/20 05:30:09;;;;;;;3.73;1.70;;;9.80;61.70;;;;;;5028806;28;20026;-77
2022/04/20 05:32:35;;;;;;;9.57;1.80;;;9.90;61.90;;;;;;5036853;28;20079;-76
2022/04/20 05:35:01;;;;;;;3.63;1.57;;;9.80;61.80;;;;;;5037130;28;20024;-76
2022/04/20 05:42:56;;;;;;;4.43;1.57;;;10.00;61.70;;;;;;5050740;28;20393;-76
2022/04/20 05:45:22;;;;;;;5.37;1.50;;;10.00;61.60;;;;;;5053626;28;20009;-76
2022/04/20 05:47:48;;;;;;;3.50;1.50;;;10.00;61.60;;;;;;5054377;28;20075;-75
2022/04/20 05:50:14;;;;;;;6.00;1.83;;;10.00;61.50;;;;;;5036239;28;20067;-75
2022/04/20 05:52:40;;;;;;;4.27;1.50;;;10.10;61.60;;;;;;5031045;28;20040;-76
2022/04/20 05:55:06;;;;;;;6.97;1.97;;;10.00;62.20;;;;;;5041465;28;20013;-76
2022/04/20 05:57:36;;;;;;;3.80;1.50;;;10.00;61.40;;;;;;5053804;28;20112;-73
2022/04/20 06:00:05;;;;;;;4.53;1.30;;;10.10;61.40;;;;;;5034014;28;20151;-77
2022/04/20 06:02:33;;;;;;;4.57;2.13;;;10.10;61.30;;;;;;5050772;28;20115;-76
2022/04/20 06:05:00;;;;;;;3.30;1.27;;;10.10;61.40;;;;;;5064466;28;20417;-76
2022/04/20 06:07:25;;;;;;;5.93;1.50;;;10.10;61.30;;;;;;5025359;28;20029;-76
2022/04/20 06:09:51;;;;;;;3.47;1.40;;;10.10;61.40;;;;;;5054498;28;20473;-77
2022/04/20 06:12:17;;;;;;;4.67;1.60;;;10.10;62.00;;;;;;5053251;28;20033;-75
2022/04/20 06:14:42;;;;;;;3.43;1.37;;;10.30;61.40;;;;;;5036900;28;20112;-73
2022/04/20 06:17:08;;;;;;;3.57;1.43;;;10.20;61.30;;;;;;5036212;28;20354;-74
2022/04/20 06:19:34;;;;;;;4.70;1.70;;;10.30;61.20;;;;;;5036271;28;20025;-77
2022/04/20 06:22:00;;;;;;;4.67;1.07;;;10.30;61.20;;;;;;5036320;28;20036;-77
2022/04/20 06:24:25;;;;;;;3.23;1.47;;;10.40;62.00;;;;;;5052968;28;20033;-77
2022/04/20 06:26:51;;;;;;;2.63;1.23;;;10.60;61.90;;;;;;5020205;28;20021;-73
2022/04/20 06:29:17;;;;;;;3.50;1.40;;;10.60;62.00;;;;;;5052724;28;20029;-76
2022/04/20 06:31:44;;;;;;;3.80;1.10;;;10.70;62.10;;;;;;5052434;28;20025;-74
2022/04/20 06:34:10;;;;;;;4.23;1.13;;;10.80;62.90;;;;;;5052839;28;20029;-76
2022/04/20 06:36:35;;;;;;;2.70;1.10;;;10.90;62.30;;;;;;5053400;28;20030;-75
2022/04/20 06:39:01;;;;;;;4.90;1.50;;;11.00;62.10;;;;;;5019476;28;20116;-74
2022/04/20 06:41:27;;;;;;;4.23;1.27;;;11.00;62.00;;;;;;5052799;28;20033;-76
2022/04/20 06:43:52;;;;;;;6.17;1.60;;;10.90;61.00;;;;;;5069242;28;20029;-76
2022/04/20 06:46:18;;;;;;;7.83;1.60;;;10.90;60.90;;;;;;5069607;28;20033;-78
2022/04/20 06:48:44;;;;;;;3.53;1.20;;;11.00;60.70;;;;;;5053772;28;20029;-75
2022/04/20 06:51:09;;;;;;;5.20;1.60;;;11.00;60.50;;;;;;5052492;28;20025;-79
2022/04/20 06:59:24;;;;;;;3.70;1.47;;;11.00;60.10;;;;;;5012123;28;20124;-76
2022/04/20 07:01:51;;;;;;;4.00;1.50;;;11.00;60.00;;;;;;5027736;28;20053;-76
2022/04/20 07:04:17;;;;;;;4.53;1.43;;;11.10;59.90;;;;;;5052672;28;20021;-75
2022/04/20 07:06:43;;;;;;;3.63;1.30;;;11.10;59.70;;;;;;5052577;28;20484;-73
2022/04/20 07:09:08;;;;;;;3.43;1.20;;;11.10;59.50;;;;;;5052117;28;20028;-77
2022/04/20 07:11:34;;;;;;;3.10;1.40;;;11.10;59.30;;;;;;5051972;28;20401;-77
2022/04/20 07:13:59;;;;;;;3.33;1.33;;;11.20;59.40;;;;;;5035454;28;20440;-76
2022/04/20 07:16:27;;;;;;;3.57;1.63;;;11.20;59.50;;;;;;5052076;28;20111;-75
2022/04/20 07:18:53;;;;;;;3.50;1.30;;;11.10;59.40;;;;;;5087365;28;20405;-75
2022/04/20 07:21:18;;;;;;;5.77;1.73;;;11.20;59.50;;;;;;5072008;28;20040;-75
2022/04/20 07:23:44;;;;;;;4.43;1.40;;;11.30;59.60;;;;;;5072184;28;20028;-76
2022/04/20 07:26:10;;;;;;;6.30;1.70;;;11.30;59.50;;;;;;5055384;28;20039;-76
2022/04/20 07:28:36;;;;;;;3.57;1.50;;;11.40;59.40;;;;;;5072303;28;20020;-75
2022/04/20 07:31:04;;;;;;;2.90;1.50;;;11.40;59.20;;;;;;5071855;28;20035;-76
2022/04/20 07:33:30;;;;;;;4.80;1.53;;;11.50;59.20;;;;;;5055472;28;20021;-76
2022/04/20 07:35:56;;;;;;;3.17;1.23;;;11.50;59.20;;;;;;5071857;28;20078;-76
2022/04/20 07:38:25;;;;;;;3.23;1.23;;;11.60;59.20;;;;;;5072017;28;20020;-76
2022/04/20 07:40:51;;;;;;;4.43;2.10;;;11.60;59.10;;;;;;5055770;28;20489;-76
2022/04/20 07:43:17;;;;;;;12.32;2.00;;;11.60;59.20;;;;;;5071917;28;20035;-76
2022/04/20 07:45:42;;;;;;;2.55;1.40;;;11.60;59.10;;;;;;5055204;28;20443;-75
2022/04/20 07:48:08;;;;;;;3.58;1.70;;;11.70;59.30;;;;;;5071817;28;20431;-76
2022/04/20 07:50:34;;;;;;;4.63;1.80;;;11.80;59.50;;;;;;5038423;28;20021;-75
2022/04/20 07:53:01;;;;;;;6.45;2.08;;;11.80;59.70;;;;;;5071935;28;20024;-76
2022/04/20 07:55:28;;;;;;;6.22;1.83;;;11.90;60.00;;;;;;5071706;28;20017;-75
2022/04/20 07:57:57;;;;;;;3.97;1.80;;;11.90;59.60;;;;;;5073100;28;20066;-76
2022/04/20 08:00:23;;;;;;;4.70;1.48;;;12.00;59.50;;;;;;5071688;28;20013;-76
2022/04/20 08:02:49;;;;;;;3.17;1.33;;;12.00;59.30;;;;;;5072957;28;20461;-75
2022/04/20 08:05:17;;;;;;;4.95;1.83;;;12.10;59.30;;;;;;5055077;28;20076;-80
2022/04/20 08:07:43;;;;;;;3.40;1.35;;;12.20;59.30;;;;;;5071772;28;20027;-81
2022/04/20 08:10:10;;;;;;;3.40;1.27;;;12.30;59.10;;;;;;5072997;28;20024;-81
2022/04/20 08:12:38;;;;;;;4.22;1.50;;;12.30;59.00;;;;;;5073008;28;20480;-81
2022/04/20 08:15:05;;;;;;;4.07;1.25;;;12.40;58.90;;;;;;5055097;28;20127;-82
2022/04/20 08:17:31;;;;;;;4.88;1.20;;;12.50;58.90;;;;;;5054747;28;20094;-81
2022/04/20 08:19:57;;;;;;;3.92;1.25;;;12.60;58.70;;;;;;5071815;28;20051;-82
2022/04/20 08:22:24;;;;;;;3.70;1.23;;;12.60;58.30;;;;;;5071199;28;20536;-80
2022/04/20 08:24:50;;;;;;;6.10;1.98;;;12.60;58.20;;;;;;5072937;28;20047;-81
2022/04/20 08:27:16;;;;;;;3.78;1.10;;;12.70;58.20;;;;;;5075273;28;20021;-82
2022/04/20 08:29:43;;;;;;;8.45;1.23;;;12.70;58.00;;;;;;5058591;28;20028;-82
2022/04/20 08:32:09;;;;;;;2.60;0.90;;;12.90;58.00;;;;;;5075508;28;20021;-80
2022/04/20 08:34:35;;;;;;;3.00;1.00;;;12.90;57.80;;;;;;5075169;28;20092;-75
2022/04/20 08:37:00;;;;;;;5.45;1.08;;;12.90;57.60;;;;;;5058658;28;20536;-75
2022/04/20 08:39:26;;;;;;;3.58;1.27;;;13.10;57.30;;;;;;5042416;28;20043;-75
2022/04/20 08:41:51;;;;;;;2.65;1.13;;;13.20;57.30;;;;;;5043997;28;20458;-75
2022/04/20 08:44:27;;;;;;;3.25;1.10;;;13.20;56.90;;;;;;5018760;28;20029;-83
2022/04/20 08:46:56;;;;;;;3.58;1.10;;;13.50;57.00;;;;;;5019019;28;20029;-83
2022/04/20 08:49:22;;;;;;;3.45;1.00;;;13.40;56.70;;;;;;5034937;28;20028;-82
2022/04/20 08:54:34;;;;;;;2.47;1.00;;;13.60;56.40;;;;;;5036104;28;20036;-83
2022/04/20 08:57:15;;;;;;;3.70;1.10;;;13.70;55.70;;;;;;5051461;28;20026;-81
2022/04/20 08:59:45;;;;;;;6.00;1.10;;;13.80;55.60;;;;;;5036617;28;20033;-81
2022/04/20 09:02:14;;;;;;;3.17;0.80;;;13.80;55.50;;;;;;5035872;28;20386;-83
2022/04/20 09:04:40;;;;;;;3.05;1.08;;;13.90;55.50;;;;;;5051292;28;20021;-82
2022/04/20 09:07:11;;;;;;;2.88;1.08;;;14.00;55.10;;;;;;5035933;28;20034;-82
2022/04/20 09:09:37;;;;;;;3.55;0.88;;;14.00;54.80;;;;;;5051203;28;20028;-79
2022/04/20 09:12:11;;;;;;;3.63;0.90;;;14.20;54.80;;;;;;5035606;28;20030;-81
2022/04/20 09:14:38;;;;;;;4.03;1.27;;;14.20;54.70;;;;;;5034383;28;20044;-82
2022/04/20 09:17:04;;;;;;;4.25;1.02;;;14.30;54.60;;;;;;5038255;28;20195;-81
2022/04/20 09:19:30;;;;;;;4.95;1.10;;;14.40;54.50;;;;;;5054480;28;20533;-83
2022/04/20 09:21:56;;;;;;;1.63;0.77;;;14.50;54.60;;;;;;5037721;28;20025;-82
2022/04/20 09:24:22;;;;;;;2.78;1.00;;;14.50;54.50;;;;;;5053943;28;20032;-81
2022/04/20 09:26:56;;;;;;;3.83;0.82;;;14.70;54.20;;;;;;5054666;28;20380;-83
2022/04/20 09:29:22;;;;;;;3.03;1.10;;;14.70;54.10;;;;;;5054458;28;20033;-84
2022/04/20 09:31:52;;;;;;;10.88;1.38;;;14.80;53.90;;;;;;5053933;28;20086;-82
2022/04/20 09:37:14;;;;;;;4.82;0.88;;;15.00;53.30;;;;;;5054494;28;20110;-81
2022/04/20 09:39:47;;;;;;;4.03;1.10;;;15.00;53.10;;;;;;5054162;28;20068;-84
2022/04/20 09:42:14;;;;;;;3.15;1.13;;;15.10;53.00;;;;;;5054013;28;20075;-80
2022/04/20 09:44:55;;;;;;;4.65;1.55;;;15.20;52.90;;;;;;5055104;28;20479;-83
2022/04/20 09:50:11;;;;;;;4.97;1.20;;;15.30;52.60;;;;;;5055330;28;20386;-83
2022/04/20 09:52:37;;;;;;;4.45;1.23;;;15.30;52.30;;;;;;5053701;28;20482;-84
2022/04/20 09:55:05;;;;;;;3.45;1.20;;;15.30;52.10;;;;;;5053646;28;20018;-83
2022/04/20 09:57:34;;;;;;;2.72;1.10;;;15.40;52.10;;;;;;5070356;28;20017;-84
2022/04/20 10:00:10;;;;;;;2.60;1.05;;;15.50;51.70;;;;;;5070359;28;20039;-83
2022/04/20 10:02:52;;;;;;;5.60;1.10;;;15.50;51.30;;;;;;5053588;28;20051;-80
2022/04/20 10:05:20;;;;;;;9.25;1.20;;;15.60;51.00;;;;;;5053520;28;20032;-79
2022/04/20 10:07:45;;;;;;;6.03;1.05;;;15.70;51.00;;;;;;5053387;28;20033;-78
2022/04/20 10:10:11;;;;;;;2.72;0.70;;;15.80;50.80;;;;;;5053729;28;20035;-85
2022/04/20 10:12:39;;;;;;;2.63;1.00;;;16.00;50.50;;;;;;5053719;28;20035;-84
2022/04/20 10:17:54;;;;;;;2.33;1.00;;;16.40;50.80;;;;;;5054545;28;20114;-84
2022/04/20 10:20:20;;;;;;;2.50;1.00;;;16.60;49.60;;;;;;5059896;28;20462;-81
2022/04/20 10:22:47;;;;;;;2.83;0.98;;;16.90;48.90;;;;;;5094589;28;20030;-83
2022/04/20 10:25:13;;;;;;;2.78;0.85;;;17.30;48.60;;;;;;5075808;28;20021;-83
2022/04/20 10:28:19;;;;;;;3.08;0.80;;;17.70;48.60;;;;;;5059583;28;20475;-83
2022/04/20 10:31:09;;;;;;;4.25;0.70;;;18.20;48.30;;;;;;5076253;28;20498;-85
2022/04/20 10:33:36;;;;;;;3.50;1.20;;;18.80;48.20;;;;;;5076934;28;20094;-82
2022/04/20 10:36:11;;;;;;;2.70;0.90;;;19.50;47.90;;;;;;5076513;28;20473;-85
2022/04/20 10:38:37;;;;;;;2.15;0.70;;;20.20;47.10;;;;;;5094144;28;20420;-82
2022/04/20 10:41:12;;;;;;;2.88;0.80;;;21.00;47.20;;;;;;5094303;28;20060;-86
2022/04/20 10:43:39;;;;;;;3.47;0.63;;;21.80;46.00;;;;;;5094267;28;20024;-84
2022/04/20 10:46:11;;;;;;;2.15;0.70;;;22.60;45.90;;;;;;5076114;28;20028;-87
2022/04/20 10:49:00;;;;;;;1.52;0.57;;;23.40;44.50;;;;;;5075726;28;20024;-85
2022/04/20 10:51:30;;;;;;;1.58;0.63;;;24.20;42.20;;;;;;5075983;28;20031;-82
2022/04/20 10:54:24;;;;;;;3.08;1.13;;;24.80;40.70;;;;;;5075801;28;20358;-82
2022/04/20 10:57:09;;;;;;;3.55;0.93;;;25.40;38.80;;;;;;5076364;28;20039;-82
2022/04/20 10:59:37;;;;;;;2.58;0.70;;;25.90;39.30;;;;;;5094083;28;20024;-85
2022/04/20 11:02:03;;;;;;;3.53;0.77;;;26.40;39.00;;;;;;5076473;28;20036;-85
2022/04/20 11:04:43;;;;;;;1.60;0.60;;;26.40;38.50;;;;;;5076109;28;20028;-85
2022/04/20 11:07:08;;;;;;;2.60;0.80;;;26.20;37.70;;;;;;5075927;28;20028;-82
2022/04/20 11:09:46;;;;;;;3.63;0.80;;;26.20;37.50;;;;;;5075618;28;20034;-79
2022/04/20 11:21:03;;;;;;;2.45;0.70;;;25.40;36.40;;;;;;5071445;28;20055;-84
2022/04/20 11:23:57;;;;;;;3.03;0.98;;;25.30;36.70;;;;;;5071891;28;20039;-84
2022/04/20 11:26:34;;;;;;;;;;;25.20;36.60;;;;;;5072434;28;20508;-80
2022/04/20 11:29:03;;;;;;;2.60;0.80;;;25.20;36.60;;;;;;5073374;28;19908;-83
2022/04/20 11:31:40;;;;;;;1.75;0.52;;;25.10;36.80;;;;;;5074050;28;20085;-84
2022/04/20 11:34:06;;;;;;;4.63;0.80;;;25.10;36.30;;;;;;5072546;28;20124;-83
2022/04/20 11:36:33;;;;;;;1.05;0.55;;;25.10;36.20;;;;;;5074315;28;20039;-81
2022/04/20 11:39:00;;;;;;;2.70;0.60;;;25.10;36.10;;;;;;5072801;28;20029;-82
2022/04/20 11:41:27;;;;;;;1.42;0.70;;;25.10;36.10;;;;;;5072891;28;20033;-83
2022/04/20 11:43:52;;;;;;;2.10;0.68;;;25.20;36.30;;;;;;5058644;28;20035;-83
2022/04/20 11:46:20;;;;;;;3.33;0.80;;;25.20;36.20;;;;;;5072870;28;20036;-83
2022/04/20 11:48:50;;;;;;;1.88;0.57;;;25.20;36.10;;;;;;5035880;28;20507;-82
2022/04/20 11:51:21;;;;;;;1.65;0.68;;;25.40;36.00;;;;;;5066631;28;20028;-83
2022/04/20 11:53:48;;;;;;;4.10;1.20;;;25.50;35.80;;;;;;5072354;28;20377;-80
2022/04/20 11:56:15;;;;;;;1.50;0.50;;;25.60;35.70;;;;;;5072940;28;20024;-82
2022/04/20 11:58:46;;;;;;;1.67;0.80;;;25.70;35.50;;;;;;5052507;28;20510;-84
2022/04/20 12:01:12;;;;;;;3.47;0.70;;;25.80;36.00;;;;;;5073453;28;20029;-83
2022/04/20 12:03:41;;;;;;;4.03;0.70;;;25.90;35.50;;;;;;5057006;28;20040;-84
2022/04/20 12:06:09;;;;;;;3.10;0.80;;;26.00;35.40;;;;;;5056328;28;20033;-82
2022/04/20 12:08:42;;;;;;;2.58;0.65;;;26.20;35.30;;;;;;5072918;28;20025;-83
2022/04/20 12:11:09;;;;;;;2.95;0.93;;;26.40;35.00;;;;;;5056317;28;20052;-82
2022/04/20 12:13:36;;;;;;;2.50;0.90;;;26.60;35.10;;;;;;5075551;28;20428;-81
2022/04/20 12:16:04;;;;;;;3.65;0.80;;;26.70;35.00;;;;;;5077838;28;20044;-83
2022/04/20 12:18:32;;;;;;;3.58;1.02;;;26.80;34.90;;;;;;5045540;28;20396;-82
2022/04/20 12:20:59;;;;;;;1.98;0.70;;;26.90;34.80;;;;;;5058162;28;20074;-81
2022/04/20 12:23:34;;;;;;;3.28;0.70;;;27.00;34.60;;;;;;5054177;28;20037;-82
2022/04/20 12:26:05;;;;;;;2.15;0.80;;;27.10;34.70;;;;;;5057172;28;20381;-84
2022/04/20 12:28:41;;;;;;;1.75;0.80;;;27.20;34.70;;;;;;5056455;28;20112;-84
2022/04/20 12:31:10;;;;;;;2.58;0.90;;;27.40;34.50;;;;;;5056388;28;20037;-85
2022/04/20 12:33:38;;;;;;;1.45;0.65;;;27.50;34.40;;;;;;5055723;28;20045;-85
2022/04/20 12:36:09;;;;;;;3.53;0.70;;;27.60;34.50;;;;;;5057154;28;20029;-81
2022/04/20 12:39:01;;;;;;;2.72;0.70;;;27.70;34.30;;;;;;5055394;28;20322;-84
2022/04/20 12:41:41;;;;;;;5.25;0.85;;;27.80;33.70;;;;;;5052211;28;20490;-85
2022/04/20 12:44:39;;;;;;;1.70;0.70;;;27.80;33.90;;;;;;5055379;28;20029;-85
2022/04/20 12:47:10;;;;;;;1.98;0.77;;;28.10;33.80;;;;;;5044424;28;20440;-84
2022/04/20 12:49:36;;;;;;;2.63;0.70;;;28.20;33.90;;;;;;5055995;28;20021;-81
2022/04/20 12:52:16;;;;;;;7.13;0.90;;;28.40;33.80;;;;;;5054828;28;20028;-83
2022/04/20 12:55:10;;;;;;;1.63;0.65;;;28.60;33.40;;;;;;5052072;28;20087;-76
2022/04/20 13:03:36;;;;;;;1.63;0.80;;;29.10;33.30;;;;;;5055671;28;20080;-76
2022/04/20 13:06:04;;;;;;;3.65;0.90;;;29.30;33.30;;;;;;5056044;28;20473;-74
2022/04/20 13:08:29;;;;;;;2.42;0.70;;;29.50;33.20;;;;;;5056043;28;20053;-77
2022/04/20 13:10:55;;;;;;;4.05;0.80;;;29.50;32.80;;;;;;5037536;28;20455;-76
2022/04/20 13:13:28;;;;;;;4.00;0.80;;;29.70;32.80;;;;;;5054536;28;20049;-78
2022/04/20 13:15:54;;;;;;;3.42;0.70;;;29.80;32.70;;;;;;5054032;28;20029;-76
2022/04/20 13:18:20;;;;;;;1.85;0.70;;;29.90;32.60;;;;;;5031426;28;20409;-75
2022/04/20 13:20:46;;;;;;;2.15;0.60;;;30.00;32.30;;;;;;5035379;28;20386;-76
2022/04/20 13:23:13;;;;;;;2.15;0.60;;;30.00;32.20;;;;;;5035583;28;20025;-78
2022/04/20 13:28:22;;;;;;;3.40;0.68;;;30.40;32.10;;;;;;5038506;28;20040;-76
2022/04/20 13:30:49;;;;;;;4.40;0.68;;;30.50;32.50;;;;;;5055435;28;20025;-76
2022/04/20 13:33:15;;;;;;;2.65;0.73;;;30.60;31.90;;;;;;5055188;28;20026;-75